createdAt,value
2022-10-10T00:01:14.606Z,16.35
2022-10-10T00:03:42.066Z,21.88
2022-10-10T00:06:09.498Z,16.90
2022-10-10T00:08:36.516Z,18.73
2022-10-10T00:11:04.221Z,14.23
2022-10-10T00:13:31.496Z,21.20
2022-10-10T00:15:58.424Z,17.00
2022-10-10T00:18:25.797Z,20.45
2022-10-10T00:20:53.395Z,17.17
2022-10-10T00:23:20.743Z,16.83
2022-10-10T00:25:48.212Z,19.50
2022-10-10T00:28:18.080Z,17.95
2022-10-10T00:30:45.756Z,20.90
2022-10-10T00:33:13.075Z,18.58
2022-10-10T00:35:39.877Z,24.88
2022-10-10T00:38:06.710Z,18.85
2022-10-10T00:40:33.603Z,23.27
2022-10-10T00:43:00.453Z,21.25
2022-10-10T00:45:39.515Z,15.30
2022-10-10T00:48:07.109Z,20.58
2022-10-10T00:50:36.438Z,14.60
2022-10-10T00:53:05.254Z,20.55
2022-10-10T00:55:31.888Z,23.17
2022-10-10T00:57:58.564Z,12.95
2022-10-10T01:00:25.150Z,16.90
2022-10-10T01:02:52.157Z,17.83
2022-10-10T01:05:19.189Z,13.50
2022-10-10T01:07:45.847Z,14.07
2022-10-10T01:10:15.022Z,15.02
2022-10-10T01:12:53.182Z,14.30
2022-10-10T01:15:38.489Z,16.27
2022-10-10T01:18:34.959Z,15.20
2022-10-10T01:21:25.021Z,15.65
2022-10-10T01:24:26.472Z,13.55
2022-10-10T01:27:08.545Z,14.15
2022-10-10T01:29:48.022Z,15.27
2022-10-10T01:32:23.629Z,14.70
2022-10-10T01:35:13.600Z,11.70
2022-10-10T01:37:57.648Z,14.18
2022-10-10T01:40:29.860Z,14.18
2022-10-10T01:42:58.708Z,12.10
2022-10-10T01:45:26.294Z,11.55
2022-10-10T01:47:54.419Z,16.02
2022-10-10T01:50:22.122Z,13.10
2022-10-10T01:53:06.918Z,9.40
2022-10-10T01:55:48.679Z,13.02
2022-10-10T01:58:24.427Z,19.17
2022-10-10T02:01:08.099Z,10.30
2022-10-10T02:03:39.977Z,13.20
2022-10-10T02:06:27.401Z,10.13
2022-10-10T02:09:17.717Z,12.00
2022-10-10T02:11:45.765Z,10.85
2022-10-10T02:14:16.101Z,10.02
2022-10-10T02:16:45.537Z,9.27
2022-10-10T02:19:16.959Z,11.25
2022-10-10T02:21:44.926Z,8.98
2022-10-10T02:24:12.278Z,10.13
2022-10-10T02:26:40.876Z,9.70
2022-10-10T02:29:11.851Z,12.48
2022-10-10T02:31:49.825Z,9.43
2022-10-10T02:38:39.767Z,12.68
2022-10-10T02:41:07.885Z,10.50
2022-10-10T02:43:34.728Z,8.98
2022-10-10T02:46:02.671Z,10.48
2022-10-10T02:48:29.260Z,11.30
2022-10-10T02:50:56.379Z,10.43
2022-10-10T02:53:22.912Z,10.23
2022-10-10T02:55:49.453Z,9.63
2022-10-10T02:58:16.025Z,9.32
2022-10-10T03:00:42.642Z,10.23
2022-10-10T03:03:09.244Z,9.18
2022-10-10T03:05:35.766Z,11.02
2022-10-10T03:08:02.262Z,7.38
2022-10-10T03:10:28.744Z,11.02
2022-10-10T03:12:55.279Z,11.23
2022-10-10T03:15:21.782Z,9.20
2022-10-10T03:17:48.326Z,10.75
2022-10-10T03:20:14.832Z,7.15
2022-10-10T03:22:41.614Z,7.82
2022-10-10T03:25:08.397Z,8.75
2022-10-10T03:27:34.911Z,6.50
2022-10-10T03:30:01.690Z,9.48
2022-10-10T03:32:28.275Z,7.78
2022-10-10T03:34:54.884Z,10.75
2022-10-10T03:37:21.587Z,9.13
2022-10-10T03:39:48.124Z,13.35
2022-10-10T03:42:14.608Z,6.88
2022-10-10T03:44:41.122Z,9.35
2022-10-10T03:47:07.574Z,10.13
2022-10-10T03:49:34.057Z,9.52
2022-10-10T03:52:01.388Z,8.88
2022-10-10T03:54:27.962Z,8.70
2022-10-10T03:56:54.436Z,9.88
2022-10-10T03:59:20.940Z,12.77
2022-10-10T04:01:48.309Z,8.98
2022-10-10T04:04:15.346Z,11.75
2022-10-10T04:06:41.941Z,10.93
2022-10-10T04:09:08.406Z,8.10
2022-10-10T04:11:36.924Z,11.27
2022-10-10T04:14:03.454Z,8.57
2022-10-10T04:16:29.978Z,12.95
2022-10-10T04:18:56.530Z,9.10
2022-10-10T04:21:23.053Z,10.27
2022-10-10T04:23:49.738Z,9.98
2022-10-10T04:26:16.204Z,9.27
2022-10-10T04:28:42.732Z,11.95
2022-10-10T04:31:09.495Z,16.17
2022-10-10T04:33:35.974Z,13.20
2022-10-10T04:36:02.516Z,10.70
2022-10-10T04:38:29.158Z,8.93
2022-10-10T04:40:55.663Z,7.97
2022-10-10T04:43:22.175Z,13.57
2022-10-10T04:45:48.744Z,11.52
2022-10-10T04:48:15.336Z,10.82
2022-10-10T04:50:41.867Z,15.30
2022-10-10T04:53:08.509Z,17.50
2022-10-10T04:55:35.085Z,12.75
2022-10-10T04:58:01.800Z,10.18
2022-10-10T05:00:28.315Z,14.90
2022-10-10T05:02:55.080Z,12.88
2022-10-10T05:05:21.629Z,24.10
2022-10-10T05:07:51.801Z,14.70
2022-10-10T05:10:21.141Z,16.20
2022-10-10T05:12:48.376Z,13.65
2022-10-10T05:15:15.177Z,19.55
2022-10-10T05:17:41.714Z,12.93
2022-10-10T05:20:08.556Z,14.68
2022-10-10T05:22:35.574Z,15.23
2022-10-10T05:25:02.678Z,21.63
2022-10-10T05:27:29.382Z,20.23
2022-10-10T05:29:56.113Z,19.85
2022-10-10T05:32:25.483Z,17.63
2022-10-10T05:34:52.076Z,22.00
2022-10-10T05:37:18.642Z,12.75
2022-10-10T05:39:45.299Z,12.70
2022-10-10T05:42:13.875Z,12.30
2022-10-10T05:44:40.389Z,11.40
2022-10-10T05:47:07.201Z,13.77
2022-10-10T05:49:33.735Z,11.40
2022-10-10T05:52:01.059Z,16.30
2022-10-10T05:54:27.622Z,13.27
2022-10-10T05:56:54.113Z,9.88
2022-10-10T05:59:20.621Z,14.68
2022-10-10T06:01:47.132Z,15.70
2022-10-10T06:04:13.675Z,13.88
2022-10-10T06:06:40.215Z,14.95
2022-10-10T06:09:06.758Z,12.20
2022-10-10T06:11:33.397Z,13.02
2022-10-10T06:13:59.945Z,14.68
2022-10-10T06:16:27.635Z,15.73
2022-10-10T06:18:56.527Z,16.90
2022-10-10T06:21:23.670Z,11.48
2022-10-10T06:23:50.213Z,12.18
2022-10-10T06:26:16.969Z,13.07
2022-10-10T06:28:43.570Z,15.32
2022-10-10T06:31:12.057Z,15.25
2022-10-10T06:33:40.782Z,14.02
2022-10-10T06:36:08.179Z,10.38
2022-10-10T06:38:39.491Z,11.48
2022-10-10T06:43:33.487Z,13.55
2022-10-10T06:46:00.974Z,15.68
2022-10-10T06:48:27.730Z,19.02
2022-10-10T06:51:02.021Z,12.70
2022-10-10T06:53:28.580Z,12.43
2022-10-10T06:55:55.679Z,15.95
2022-10-10T06:58:23.316Z,14.45
2022-10-10T07:00:51.352Z,13.80
2022-10-10T07:03:18.144Z,12.65
2022-10-10T07:05:44.985Z,13.77
2022-10-10T07:08:11.666Z,13.80
2022-10-10T07:10:38.211Z,14.43
2022-10-10T07:13:04.970Z,14.07
2022-10-10T07:15:31.506Z,13.63
2022-10-10T07:17:59.220Z,13.88
2022-10-10T07:20:26.925Z,13.65
2022-10-10T07:22:54.117Z,10.10
2022-10-10T07:25:20.782Z,12.00
2022-10-10T07:27:47.317Z,13.20
2022-10-10T07:30:13.846Z,15.32
2022-10-10T07:32:40.359Z,16.60
2022-10-10T07:35:07.122Z,18.42
2022-10-10T07:37:33.918Z,16.25
2022-10-10T07:40:00.424Z,11.90
2022-10-10T07:42:27.007Z,11.20
2022-10-10T07:44:53.573Z,11.23
2022-10-10T07:47:20.090Z,17.70
2022-10-10T07:49:46.659Z,13.93
2022-10-10T07:52:13.159Z,13.60
2022-10-10T07:54:39.632Z,8.07
2022-10-10T07:57:06.100Z,17.17
2022-10-10T07:59:32.587Z,16.10
2022-10-10T08:01:59.204Z,10.82
2022-10-10T08:04:25.743Z,17.63
2022-10-10T08:06:52.357Z,12.63
2022-10-10T08:09:18.900Z,12.57
2022-10-10T08:11:46.634Z,11.45
2022-10-10T08:14:13.133Z,13.13
2022-10-10T08:16:39.659Z,12.38
2022-10-10T08:19:06.434Z,18.17
2022-10-10T08:21:35.903Z,14.13
2022-10-10T08:24:02.846Z,19.70
2022-10-10T08:26:29.331Z,16.17
2022-10-10T08:28:56.460Z,13.98
2022-10-10T08:31:23.000Z,13.05
2022-10-10T08:33:50.916Z,12.00
2022-10-10T08:36:19.761Z,18.15
2022-10-10T08:38:47.192Z,13.80
2022-10-10T08:41:50.558Z,11.25
2022-10-10T08:44:23.112Z,14.35
2022-10-10T08:47:03.268Z,15.25
2022-10-10T08:49:52.165Z,11.05
2022-10-10T08:52:41.248Z,11.35
2022-10-10T08:55:17.838Z,13.75
2022-10-10T08:57:52.009Z,11.45
2022-10-10T09:00:21.738Z,15.75
2022-10-10T09:02:54.357Z,9.90
2022-10-10T09:05:35.857Z,12.82
2022-10-10T09:08:16.465Z,9.77
2022-10-10T09:10:56.883Z,11.80
2022-10-10T09:13:46.729Z,12.50
2022-10-10T09:16:31.370Z,9.20
2022-10-10T09:19:12.538Z,11.60
2022-10-10T09:21:41.989Z,9.35
2022-10-10T09:24:25.243Z,9.50
2022-10-10T09:27:00.732Z,10.48
2022-10-10T09:29:28.966Z,13.48
2022-10-10T09:32:03.446Z,13.60
2022-10-10T09:34:39.201Z,9.93
2022-10-10T09:37:16.440Z,8.23
2022-10-10T09:40:03.889Z,11.90
2022-10-10T09:42:38.185Z,9.82
2022-10-10T09:45:14.511Z,7.97
2022-10-10T09:47:41.150Z,10.10
2022-10-10T09:50:11.380Z,9.07
2022-10-10T09:52:37.853Z,16.17
2022-10-10T09:55:29.010Z,9.00
2022-10-10T09:57:58.300Z,8.32
2022-10-10T10:00:28.532Z,9.50
2022-10-10T10:03:15.227Z,10.23
2022-10-10T10:05:44.860Z,16.27
2022-10-10T10:08:25.741Z,9.60
2022-10-10T10:10:52.521Z,9.43
2022-10-10T10:13:25.790Z,11.52
2022-10-10T10:16:00.047Z,13.93
2022-10-10T10:18:28.766Z,7.40
2022-10-10T10:21:07.338Z,11.40
2022-10-10T10:23:37.444Z,10.57
2022-10-10T10:26:06.557Z,17.13
2022-10-10T10:28:42.615Z,14.63
2022-10-10T10:31:28.469Z,9.40
2022-10-10T10:33:57.828Z,15.48
2022-10-10T10:36:29.066Z,12.10
2022-10-10T10:41:50.660Z,21.98
2022-10-10T10:44:33.168Z,9.02
2022-10-10T10:47:11.516Z,13.80
2022-10-10T10:49:40.829Z,9.95
2022-10-10T10:52:26.223Z,8.73
2022-10-10T10:55:17.136Z,9.80
2022-10-10T10:58:05.140Z,11.98
2022-10-10T11:01:21.017Z,13.80
2022-10-10T11:05:18.208Z,14.27
2022-10-10T11:07:20.449Z,12.55
2022-10-10T11:10:06.145Z,11.63
2022-10-10T11:12:53.714Z,13.05
2022-10-10T11:18:45.752Z,16.25
2022-10-10T11:21:16.959Z,12.98
2022-10-10T11:26:21.156Z,12.10
2022-10-10T11:28:56.956Z,12.10
2022-10-10T11:31:57.420Z,14.80
2022-10-10T11:34:34.105Z,10.63
2022-10-10T11:37:04.530Z,10.65
2022-10-10T11:39:44.778Z,12.30
2022-10-10T11:42:15.119Z,16.13
2022-10-10T11:45:01.933Z,8.63
2022-10-10T11:47:32.935Z,11.73
2022-10-10T11:49:59.335Z,11.98
2022-10-10T11:52:39.618Z,16.10
2022-10-10T11:55:13.295Z,15.25
2022-10-10T11:57:53.756Z,13.48
2022-10-10T12:00:20.552Z,17.13
2022-10-10T12:02:48.026Z,9.48
2022-10-10T12:05:23.761Z,11.88
2022-10-10T12:08:24.058Z,12.90
2022-10-10T12:11:00.509Z,11.57
2022-10-10T12:13:38.756Z,10.60
2022-10-10T12:16:08.283Z,15.02
2022-10-10T12:18:47.316Z,8.45
2022-10-10T12:21:17.394Z,14.80
2022-10-10T12:23:48.245Z,12.95
2022-10-10T12:26:17.616Z,11.73
2022-10-10T12:29:03.483Z,21.42
2022-10-10T12:31:34.887Z,11.05
2022-10-10T12:36:29.531Z,11.93
2022-10-10T12:39:03.103Z,13.52
2022-10-10T12:41:46.999Z,18.15
2022-10-10T12:44:23.507Z,14.10
2022-10-10T12:47:14.535Z,11.25
2022-10-10T12:50:12.757Z,14.68
2022-10-10T12:52:51.288Z,12.68
2022-10-10T12:55:26.470Z,15.70
2022-10-10T12:57:55.663Z,11.30
2022-10-10T13:00:24.876Z,12.85
2022-10-10T13:02:59.614Z,13.95
2022-10-10T13:05:31.700Z,12.95
2022-10-10T13:08:07.667Z,10.82
2022-10-10T13:10:34.170Z,13.68
2022-10-10T13:13:02.265Z,12.35
2022-10-10T13:15:29.529Z,15.23
2022-10-10T13:17:56.064Z,16.27
2022-10-10T13:20:28.998Z,12.15
2022-10-10T13:22:56.592Z,14.25
2022-10-10T13:25:23.916Z,17.40
2022-10-10T13:27:50.800Z,18.02
2022-10-10T13:30:22.383Z,12.85
2022-10-10T13:32:49.376Z,16.52
2022-10-10T13:35:27.118Z,17.15
2022-10-10T13:37:59.016Z,18.85
2022-10-10T13:40:26.331Z,15.57
2022-10-10T13:42:53.616Z,14.23
2022-10-10T13:45:29.338Z,15.18
2022-10-10T13:48:02.953Z,15.20
2022-10-10T13:50:53.362Z,12.73
2022-10-10T13:53:27.107Z,16.42
2022-10-10T13:55:59.537Z,17.85
2022-10-10T13:58:32.751Z,13.88
2022-10-10T14:01:01.925Z,21.00
2022-10-10T14:03:29.880Z,12.15
2022-10-10T14:05:56.555Z,15.27
2022-10-10T14:08:28.800Z,16.90
2022-10-10T14:11:04.324Z,12.50
2022-10-10T14:13:31.712Z,13.55
2022-10-10T14:16:33.865Z,18.52
2022-10-10T14:19:00.471Z,17.90
2022-10-10T14:21:27.012Z,14.45
2022-10-10T14:23:53.604Z,17.50
2022-10-10T14:26:20.819Z,17.65
2022-10-10T14:28:47.836Z,15.55
2022-10-10T14:31:14.652Z,14.95
2022-10-10T14:33:41.158Z,15.32
2022-10-10T14:36:07.967Z,18.25
2022-10-10T14:38:34.489Z,15.55
2022-10-10T14:41:01.936Z,14.35
2022-10-10T14:43:28.746Z,11.70
2022-10-10T14:45:55.242Z,16.45
2022-10-10T14:48:22.192Z,9.93
2022-10-10T14:50:49.446Z,14.57
2022-10-10T14:53:16.272Z,16.45
2022-10-10T14:55:43.671Z,9.77
2022-10-10T14:58:18.171Z,16.13
2022-10-10T15:00:45.377Z,18.55
2022-10-10T15:03:12.037Z,16.27
2022-10-10T15:05:38.862Z,20.27
2022-10-10T15:08:05.722Z,13.82
2022-10-10T15:10:34.022Z,11.95
2022-10-10T15:13:01.833Z,13.68
2022-10-10T15:15:28.436Z,15.00
2022-10-10T15:17:57.103Z,16.30
2022-10-10T15:20:30.392Z,18.98
2022-10-10T15:23:05.275Z,10.68
2022-10-10T15:25:34.036Z,13.98
2022-10-10T15:28:02.860Z,12.90
2022-10-10T15:30:30.210Z,12.05
2022-10-10T15:32:56.722Z,10.23
2022-10-10T15:35:25.105Z,10.57
2022-10-10T15:37:51.693Z,13.07
2022-10-10T15:40:21.447Z,10.48
2022-10-10T15:42:48.759Z,12.48
2022-10-10T15:45:30.914Z,22.23
2022-10-10T15:48:02.225Z,10.02
2022-10-10T15:50:28.766Z,17.33
2022-10-10T15:52:55.325Z,17.63
2022-10-10T15:55:21.880Z,12.65
2022-10-10T15:57:48.473Z,13.25
2022-10-10T16:00:15.664Z,14.48
2022-10-10T16:02:42.119Z,10.73
2022-10-10T16:05:10.020Z,14.98
2022-10-10T16:07:45.360Z,15.52
2022-10-10T16:10:14.842Z,12.05
2022-10-10T16:12:41.360Z,15.38
2022-10-10T16:15:08.436Z,19.20
2022-10-10T16:17:35.042Z,17.95
2022-10-10T16:20:02.345Z,16.23
2022-10-10T16:22:28.860Z,17.35
2022-10-10T16:27:42.881Z,18.58
2022-10-10T16:30:10.324Z,17.50
2022-10-10T16:32:42.017Z,19.75
2022-10-10T16:35:10.030Z,14.25
2022-10-10T16:37:36.516Z,11.35
2022-10-10T16:40:03.274Z,15.32
2022-10-10T16:42:29.766Z,10.50
2022-10-10T16:44:56.349Z,7.63
2022-10-10T16:47:22.850Z,14.23
2022-10-10T16:49:49.384Z,10.27
2022-10-10T16:52:15.884Z,23.55
2022-10-10T16:54:42.468Z,12.05
2022-10-10T16:57:11.979Z,12.27
2022-10-10T16:59:38.724Z,11.07
2022-10-10T17:02:05.274Z,14.23
2022-10-10T17:04:31.838Z,15.05
2022-10-10T17:06:58.499Z,13.68
2022-10-10T17:09:26.671Z,12.40
2022-10-10T17:11:53.215Z,10.57
2022-10-10T17:14:19.781Z,14.63
2022-10-10T17:17:10.996Z,13.50
2022-10-10T17:19:33.016Z,15.60
2022-10-10T17:21:59.538Z,13.60
2022-10-10T17:24:26.098Z,14.38
2022-10-10T17:26:52.779Z,16.58
2022-10-10T17:29:19.461Z,9.38
2022-10-10T17:31:45.981Z,7.63
2022-10-10T17:34:12.685Z,4.35
2022-10-10T17:36:39.280Z,5.28
2022-10-10T17:39:07.685Z,6.90
2022-10-10T17:41:34.506Z,4.30
2022-10-10T17:44:01.177Z,9.10
2022-10-10T17:46:36.210Z,8.27
2022-10-10T17:49:05.025Z,10.07
2022-10-10T17:51:32.027Z,13.13
2022-10-10T17:53:59.998Z,13.95
2022-10-10T17:56:27.160Z,10.00
2022-10-10T17:58:54.209Z,6.78
2022-10-10T18:01:21.577Z,17.58
2022-10-10T18:03:48.595Z,11.45
2022-10-10T18:06:20.731Z,11.98
2022-10-10T18:08:51.715Z,14.15
2022-10-10T18:11:21.558Z,13.05
2022-10-10T18:13:48.516Z,13.73
2022-10-10T18:16:18.012Z,9.63
2022-10-10T18:18:50.687Z,15.38
2022-10-10T18:21:19.419Z,25.00
2022-10-10T18:23:46.244Z,10.55
2022-10-10T18:26:17.986Z,11.95
2022-10-10T18:28:44.824Z,20.08
2022-10-10T18:31:20.923Z,7.68
2022-10-10T18:33:48.503Z,24.48
2022-10-10T18:36:17.689Z,12.75
2022-10-10T18:38:44.739Z,9.98
2022-10-10T18:41:14.899Z,11.35
2022-10-10T18:43:42.527Z,7.95
2022-10-10T18:46:11.844Z,16.13
2022-10-10T18:48:40.310Z,13.25
2022-10-10T18:51:13.492Z,19.13
2022-10-10T18:53:42.581Z,18.67
2022-10-10T18:56:10.867Z,17.33
2022-10-10T18:58:38.430Z,21.08
2022-10-10T19:01:08.666Z,15.40
2022-10-10T19:03:37.007Z,15.15
2022-10-10T19:06:06.262Z,16.83
2022-10-10T19:08:33.732Z,17.92
2022-10-10T19:11:01.632Z,16.92
2022-10-10T19:13:29.219Z,15.48
2022-10-10T19:15:56.650Z,22.25
2022-10-10T19:18:23.565Z,10.48
2022-10-10T19:20:50.456Z,20.60
2022-10-10T19:23:17.377Z,23.05
2022-10-10T19:25:46.381Z,17.17
2022-10-10T19:28:13.201Z,23.33
2022-10-10T19:30:41.331Z,18.13
2022-10-10T19:33:11.012Z,23.25
2022-10-10T19:35:39.446Z,24.17
2022-10-10T19:38:07.357Z,23.17
2022-10-10T19:40:34.632Z,16.85
2022-10-10T19:43:01.985Z,17.77
2022-10-10T19:45:28.691Z,15.38
2022-10-10T19:47:55.525Z,14.20
2022-10-10T19:50:22.338Z,19.52
2022-10-10T19:52:49.047Z,10.15
2022-10-10T19:55:18.449Z,12.90
2022-10-10T19:57:45.184Z,15.15
2022-10-10T20:00:16.323Z,16.40
2022-10-10T20:02:43.932Z,22.52
2022-10-10T20:05:10.998Z,15.95
2022-10-10T20:07:37.689Z,16.85
2022-10-10T20:10:05.083Z,18.17
2022-10-10T20:12:31.967Z,16.77
2022-10-10T20:15:00.004Z,15.07
2022-10-10T20:17:27.778Z,14.98
2022-10-10T20:19:54.588Z,12.40
2022-10-10T20:22:24.097Z,12.18
2022-10-10T20:24:50.786Z,17.50
2022-10-10T20:27:17.467Z,17.70
2022-10-10T20:29:44.237Z,17.65
2022-10-10T20:32:11.037Z,21.67
2022-10-10T20:34:37.598Z,19.40
2022-10-10T20:37:04.158Z,16.85
2022-10-10T20:39:30.679Z,15.07
2022-10-10T20:41:57.125Z,14.60
2022-10-10T20:44:23.584Z,11.55
2022-10-10T20:46:50.084Z,18.67
2022-10-10T20:49:18.920Z,11.50
2022-10-10T20:51:48.721Z,12.98
2022-10-10T20:54:17.188Z,20.17
2022-10-10T20:56:44.770Z,18.05
2022-10-10T20:59:14.254Z,20.65
2022-10-10T21:01:41.029Z,19.20
2022-10-10T21:04:10.972Z,14.18
2022-10-10T21:06:38.411Z,11.27
2022-10-10T21:09:07.223Z,21.23
2022-10-10T21:11:34.497Z,15.43
2022-10-10T21:14:01.867Z,18.65
2022-10-10T21:16:31.480Z,15.75
2022-10-10T21:18:58.862Z,14.13
2022-10-10T21:21:27.088Z,17.17
2022-10-10T21:23:56.190Z,10.65
2022-10-10T21:26:24.034Z,21.08
2022-10-10T21:28:50.953Z,10.65
2022-10-10T21:31:23.325Z,11.27
2022-10-10T21:33:49.986Z,15.05
2022-10-10T21:36:18.854Z,17.52
2022-10-10T21:38:45.367Z,14.57
2022-10-10T21:41:19.236Z,19.05
2022-10-10T21:43:47.776Z,18.70
2022-10-10T21:46:17.131Z,13.82
2022-10-10T21:48:44.126Z,12.77
2022-10-10T21:51:10.865Z,17.35
2022-10-10T21:53:37.375Z,14.40
2022-10-10T21:56:08.776Z,18.67
2022-10-10T21:58:37.757Z,14.30
2022-10-10T22:01:17.721Z,16.25
2022-10-10T22:03:45.308Z,9.57
2022-10-10T22:06:15.015Z,10.52
2022-10-10T22:08:42.213Z,20.42
2022-10-10T22:11:14.338Z,26.02
2022-10-10T22:13:40.955Z,13.38
2022-10-10T22:16:08.861Z,15.25
2022-10-10T22:18:36.334Z,17.83
2022-10-10T22:21:05.491Z,19.23
2022-10-10T22:23:32.120Z,16.70
2022-10-10T22:25:58.739Z,22.00
2022-10-10T22:28:25.298Z,22.90
2022-10-10T22:30:51.849Z,24.88
2022-10-10T22:33:18.380Z,26.67
2022-10-10T22:35:45.191Z,15.90
2022-10-10T22:38:11.670Z,18.42
2022-10-10T22:40:38.406Z,22.88
2022-10-10T22:43:04.961Z,22.33
2022-10-10T22:45:31.500Z,23.00
2022-10-10T22:47:57.964Z,19.33
2022-10-10T22:50:24.489Z,18.80
2022-10-10T22:52:50.946Z,28.20
2022-10-10T22:55:18.864Z,19.45
2022-10-10T22:57:46.009Z,24.77
2022-10-10T23:00:13.171Z,20.27
2022-10-10T23:02:39.770Z,22.25
2022-10-10T23:05:07.010Z,21.60
2022-10-10T23:07:33.766Z,23.40
2022-10-10T23:10:00.304Z,27.38
2022-10-10T23:12:26.842Z,25.42
2022-10-10T23:14:53.413Z,28.58
2022-10-10T23:17:19.957Z,27.25
2022-10-10T23:19:46.497Z,28.85
2022-10-10T23:22:13.052Z,24.23
2022-10-10T23:24:40.023Z,33.22
2022-10-10T23:27:06.509Z,30.10
2022-10-10T23:29:33.278Z,29.83
2022-10-10T23:31:59.748Z,35.67
2022-10-10T23:34:26.455Z,40.40
2022-10-10T23:36:53.013Z,32.13
2022-10-10T23:39:19.518Z,27.10
2022-10-10T23:41:45.984Z,32.38
2022-10-10T23:44:12.478Z,27.63
2022-10-10T23:46:38.966Z,35.45
2022-10-10T23:49:05.463Z,28.63
2022-10-10T23:51:32.153Z,20.45
2022-10-10T23:53:58.771Z,34.17
2022-10-10T23:56:25.347Z,32.45
2022-10-10T23:58:51.812Z,29.35
